This is the latest recevied weather packets stored in our database for station/object SP1BMW-13. If no packets are shown the sender has not sent any weather packets the latest 10 day(s).
| Time | Temp. | Humidity | Pressure | Rain* | Wind** | Luminosity | Snow |
|---|---|---|---|---|---|---|---|
| 1778244602 | 13.89° C | 56% | 1019.9 hPa | 0 mm | 0.45 m/s, 16° | 263 W/m² | - |
| 1778244542 | 13.89° C | 55% | 1020 hPa | 0 mm | 0 m/s | 264 W/m² | - |
| 1778244480 | 13.89° C | 55% | 1019.9 hPa | 0 mm | 0.45 m/s, 48° | 264 W/m² | - |
| 1778244420 | 13.89° C | 56% | 1020.1 hPa | 0 mm | 0 m/s | 265 W/m² | - |
| 1778244360 | 13.89° C | 56% | 1019.9 hPa | 0 mm | 0 m/s | 265 W/m² | - |
| 1778244303 | 13.89° C | 56% | 1019.9 hPa | 0 mm | 0.45 m/s, 71° | 263 W/m² | - |
| 1778244240 | 13.89° C | 56% | 1020.1 hPa | 0 mm | 0 m/s | 257 W/m² | - |
| 1778244180 | 13.89° C | 56% | 1020.1 hPa | 0 mm | 0 m/s | 249 W/m² | - |
| 1778244120 | 13.33° C | 56% | 1020.2 hPa | 0 mm | 0.45 m/s, 53° | 247 W/m² | - |
| 1778244063 | 13.33° C | 57% | 1020 hPa | 0 mm | 0.45 m/s, 58° | 245 W/m² | - |
| 1778244036 | 13.33° C | 56% | 1020.1 hPa | 0 mm | 0 m/s | 244 W/m² | - |
| 1778243939 | 13.33° C | 58% | 1020 hPa | 0 mm | 0 m/s | 243 W/m² | - |
| 1778243880 | 13.33° C | 57% | 1019.9 hPa | 0 mm | 0 m/s | 242 W/m² | - |
| 1778243820 | 13.33° C | 58% | 1020 hPa | 0 mm | 0.89 m/s, 45° | 239 W/m² | - |
| 1778243760 | 13.33° C | 59% | 1020 hPa | 0 mm | 0.45 m/s, 59° | 234 W/m² | - |
| 1778243700 | 13.33° C | 58% | 1019.9 hPa | 0 mm | 0.89 m/s, 11° | 228 W/m² | - |
| 1778243640 | 13.33° C | 58% | 1020 hPa | 0 mm | 0 m/s | 222 W/m² | - |
| 1778243580 | 13.33° C | 57% | 1020.1 hPa | 0 mm | 1.34 m/s, 41° | 214 W/m² | - |
| 1778243520 | 13.33° C | 59% | 1020.1 hPa | 0 mm | 0.45 m/s, 53° | 206 W/m² | - |
| 1778243460 | 12.78° C | 58% | 1020.1 hPa | 0 mm | 0.45 m/s, 48° | 197 W/m² | - |
| 1778243400 | 12.78° C | 59% | 1020.1 hPa | 0 mm | 1.34 m/s, 71° | 189 W/m² | - |
| 1778243341 | 12.78° C | 60% | 1020.2 hPa | 0 mm | 0.89 m/s, 49° | 174 W/m² | - |
| 1778243280 | 12.78° C | 59% | 1020.2 hPa | 0 mm | 0.89 m/s, 49° | 166 W/m² | - |
| 1778243220 | 12.78° C | 60% | 1020 hPa | 0 mm | 0 m/s | 159 W/m² | - |
| 1778243160 | 12.78° C | 59% | 1020.1 hPa | 0 mm | 0.45 m/s, 48° | 157 W/m² | - |
* Rain latest hour (hover to see other rain measurements)
** Current wind speed in m/s (hover to see current wind gust speed)